Westfield Center, Ohio
Current Conditions -  °F | °C
As of 10:36 AM on Saturday 22 Nov 2014 (Local Time) from KAKR Reporting Station
Haze Haze  
Wind Chill: 24°   Ceiling: 800
Heat Index: 34°   Visibility: 6mi
Dew Point: 31°   Wind: 15mph
Humidity: 89%   Direction: 200°SSW
Pressure: 30.21"   Gusts: NA
Location:  41.03°N, 81.93°W
Report Text: KAKR 221536Z AUTO 20013KT 6SM BR OVC008 01/M01 A3021 RMK AO2 FZRAE30 CIG 006V012 P0000 I1001 T00111006
Loading
Personal Weather Stations






























Interactive Weather Map New forecast layout! Learn more

10-Day Weather Forecast

Advertisements
Track Severe Weather on mobile